El Paso, Illinois
Current Conditions -  °F | °C
As of 2:08 AM on Sunday 21 Dec 2014 (Local Time) from KBMI Reporting Station
Overcast Overcast  
Wind Chill: 25°   Ceiling: 3100
Heat Index: 32°   Visibility: 7mi
Dew Point: 30°   Wind: 8mph
Humidity: 93%   Direction: 170°S
Pressure: 30.24"   Gusts: NA
Location:  40.74°N, 89.02°W
Report Text: KBMI 210808Z AUTO 17007KT 7SM OVC031 00/M01 A3024 RMK AO2
Loading
Personal Weather Stations






























Interactive Weather Map New forecast layout! Learn more

10-Day Weather Forecast

Advertisements
Track Severe Weather on mobile